Time;durP1;ratioP1;P1;durP2;ratioP2;P2;SDS_P1;SDS_P2;PMS_P1;PMS_P2;Temp;Humidity;BMP_temperature;BMP_pressure;BME280_temperature;BME280_humidity;BME280_pressure;Samples;Min_cycle;Max_cycle;Signal;HPM_P1;HPM_P2
2023/03/26 06:18:01;;;;;;;18.70;3.05;;;14.90;67.20;;;;;;5513414;23;20066;-80
2023/03/26 06:20:30;;;;;;;15.63;2.20;;;14.90;67.00;;;;;;4835271;29;20528;-78
2023/03/26 06:22:56;;;;;;;19.30;2.28;;;14.90;66.90;;;;;;4852737;29;20064;-79
2023/03/26 06:25:22;;;;;;;15.10;3.03;;;15.00;67.10;;;;;;4849554;29;20361;-76
2023/03/26 06:27:47;;;;;;;26.83;3.45;;;15.10;67.20;;;;;;4830595;29;20042;-78
2023/03/26 06:30:13;;;;;;;28.92;3.45;;;15.10;67.10;;;;;;4840355;29;20082;-78
2023/03/26 06:32:39;;;;;;;23.10;2.97;;;15.30;67.50;;;;;;4837641;29;20061;-79
2023/03/26 06:35:06;;;;;;;23.67;3.63;;;15.40;67.70;;;;;;4842804;29;20054;-77
2023/03/26 06:37:32;;;;;;;29.27;3.38;;;15.50;68.10;;;;;;4841033;29;20042;-81
2023/03/26 06:39:58;;;;;;;25.27;2.42;;;15.60;68.10;;;;;;4830417;29;20046;-76
2023/03/26 06:42:24;;;;;;;17.48;3.28;;;15.60;68.10;;;;;;4845822;29;20076;-81
2023/03/26 06:44:49;;;;;;;23.98;3.25;;;15.70;68.00;;;;;;4846496;29;20042;-79
2023/03/26 06:47:15;;;;;;;20.88;2.95;;;15.70;67.90;;;;;;4846569;29;20426;-79
2023/03/26 06:49:41;;;;;;;24.17;3.13;;;15.80;67.90;;;;;;4846073;29;20076;-79
2023/03/26 06:52:06;;;;;;;19.05;3.00;;;15.80;67.90;;;;;;4846750;29;20391;-79
2023/03/26 06:54:32;;;;;;;22.98;3.80;;;15.80;68.00;;;;;;4829926;29;20110;-81
2023/03/26 06:56:58;;;;;;;19.85;2.72;;;15.90;68.00;;;;;;4846662;29;20042;-80
2023/03/26 06:59:25;;;;;;;27.73;3.42;;;15.90;68.10;;;;;;4845431;29;20057;-77
2023/03/26 07:01:50;;;;;;;17.73;3.40;;;15.90;68.00;;;;;;4846446;29;20034;-79
2023/03/26 07:04:16;;;;;;;20.92;3.20;;;15.90;67.70;;;;;;4845727;29;20098;-82
2023/03/26 07:06:42;;;;;;;21.50;2.50;;;15.90;66.50;;;;;;4845119;29;20058;-80
2023/03/26 07:09:07;;;;;;;23.33;3.53;;;15.80;65.00;;;;;;4846316;29;20345;-82
2023/03/26 07:11:33;;;;;;;18.23;2.53;;;15.80;63.70;;;;;;4829493;29;20426;-79
2023/03/26 07:13:59;;;;;;;23.10;3.53;;;15.70;63.20;;;;;;4845543;29;20078;-82
2023/03/26 07:16:25;;;;;;;14.88;2.88;;;15.70;63.20;;;;;;4845683;29;20049;-80
2023/03/26 07:18:53;;;;;;;17.67;2.30;;;15.70;63.30;;;;;;4844765;29;20393;-82
2023/03/26 07:21:20;;;;;;;21.45;2.53;;;15.70;63.50;;;;;;4815338;29;20053;-79
2023/03/26 07:23:46;;;;;;;14.52;2.25;;;15.80;63.60;;;;;;4844581;29;20046;-79
2023/03/26 07:26:32;;;;;;;13.88;2.70;;;15.80;63.80;;;;;;4845129;29;20483;-75
2023/03/26 07:29:25;;;;;;;21.88;2.92;;;15.80;64.20;;;;;;4830138;29;20410;-76
2023/03/26 07:32:14;;;;;;;14.57;2.50;;;15.70;64.70;;;;;;4844971;29;20049;-82
2023/03/26 07:35:06;;;;;;;11.77;1.83;;;15.70;65.10;;;;;;4844975;29;20054;-80
2023/03/26 07:38:22;;;;;;;20.05;2.75;;;15.80;65.50;;;;;;4844463;29;20050;-80
2023/03/26 07:40:51;;;;;;;9.73;1.60;;;15.90;65.80;;;;;;4845613;29;20373;-79
2023/03/26 07:43:48;;;;;;;10.57;1.70;;;15.90;65.30;;;;;;4844560;29;20481;-78
2023/03/26 07:46:46;;;;;;;11.15;2.53;;;16.00;64.90;;;;;;4829903;29;20480;-79
2023/03/26 07:53:03;;;;;;;17.10;2.30;;;16.00;61.90;;;;;;4839709;29;20460;-81
2023/03/26 07:55:29;;;;;;;15.38;2.17;;;15.90;62.80;;;;;;4844521;29;20112;-77
2023/03/26 07:58:15;;;;;;;22.02;2.58;;;15.90;62.70;;;;;;4845499;29;20460;-77
2023/03/26 08:00:50;;;;;;;22.77;2.65;;;15.90;62.70;;;;;;4845441;29;20487;-76
2023/03/26 08:03:40;;;;;;;19.70;2.63;;;15.90;63.00;;;;;;4845493;29;20046;-78
2023/03/26 08:06:30;;;;;;;21.02;2.92;;;15.80;62.20;;;;;;4828957;29;20072;-78
2023/03/26 08:09:05;;;;;;;17.38;2.60;;;15.80;61.90;;;;;;4840300;29;20050;-78
2023/03/26 08:11:56;;;;;;;23.98;2.72;;;15.80;62.00;;;;;;4839691;29;20046;-78
2023/03/26 08:14:48;;;;;;;18.27;2.30;;;15.80;62.10;;;;;;4845336;29;20049;-77
2023/03/26 08:17:22;;;;;;;29.08;3.28;;;15.80;62.70;;;;;;4841913;29;20131;-77
2023/03/26 08:20:10;;;;;;;24.88;2.70;;;15.80;63.00;;;;;;4844714;29;20077;-77
2023/03/26 08:22:41;;;;;;;26.02;4.32;;;15.90;63.40;;;;;;4842138;29;20057;-76
2023/03/26 08:25:39;;;;;;;40.28;5.13;;;15.90;63.70;;;;;;4846036;29;20129;-74
2023/03/26 08:28:41;;;;;;;30.63;3.58;;;15.90;63.90;;;;;;4845012;29;20331;-78
2023/03/26 08:31:10;;;;;;;29.98;4.00;;;15.90;63.90;;;;;;4830387;29;20064;-77
2023/03/26 08:33:36;;;;;;;39.88;4.80;;;15.90;63.90;;;;;;4844856;29;20065;-76
2023/03/26 08:36:01;;;;;;;36.47;5.15;;;15.90;64.10;;;;;;4844387;29;20064;-76
2023/03/26 08:38:27;;;;;;;45.00;4.63;;;15.90;64.30;;;;;;4845205;29;20064;-74
2023/03/26 08:41:02;;;;;;;46.05;4.85;;;15.90;64.40;;;;;;4845073;29;20055;-79
2023/03/26 08:43:33;;;;;;;17.05;3.38;;;15.90;63.90;;;;;;4853808;29;20128;-76
2023/03/26 08:46:30;;;;;;;15.88;2.90;;;15.90;58.00;;;;;;4863192;29;20429;-77
2023/03/26 08:49:09;;;;;;;15.43;2.45;;;15.80;55.00;;;;;;4862724;29;20049;-79
2023/03/26 08:51:56;;;;;;;9.48;1.80;;;15.60;52.40;;;;;;4863356;29;20052;-82
2023/03/26 08:54:25;;;;;;;11.38;2.25;;;15.40;50.60;;;;;;4846681;29;20458;-80
2023/03/26 08:57:01;;;;;;;14.38;2.65;;;15.20;51.80;;;;;;4843892;29;20050;-80
2023/03/26 08:59:36;;;;;;;15.45;2.70;;;15.00;53.60;;;;;;4844450;29;20046;-78
2023/03/26 09:02:14;;;;;;;8.00;1.77;;;15.00;54.40;;;;;;4843617;29;20049;-76
2023/03/26 09:05:06;;;;;;;9.55;1.88;;;15.10;54.50;;;;;;4862807;29;20057;-78
2023/03/26 09:07:57;;;;;;;10.10;1.65;;;15.10;53.80;;;;;;4863006;29;20133;-77
2023/03/26 09:10:29;;;;;;;7.03;2.08;;;15.10;54.00;;;;;;4861669;29;20049;-78
2023/03/26 09:13:03;;;;;;;8.95;1.50;;;15.10;54.90;;;;;;4857681;29;20041;-79
2023/03/26 09:15:32;;;;;;;6.07;1.30;;;15.10;55.10;;;;;;4844580;29;20079;-80
2023/03/26 09:18:35;;;;;;;7.95;1.75;;;15.10;55.40;;;;;;4844660;29;20440;-79
2023/03/26 09:21:17;;;;;;;9.25;1.80;;;15.10;55.50;;;;;;4844074;29;20060;-80
2023/03/26 09:23:56;;;;;;;5.35;1.42;;;15.10;55.80;;;;;;4854076;29;20057;-76
2023/03/26 09:26:50;;;;;;;6.90;1.55;;;15.10;56.00;;;;;;4862481;29;20385;-78
2023/03/26 09:30:08;;;;;;;6.38;1.80;;;15.10;56.40;;;;;;4862755;29;20057;-81
2023/03/26 09:32:36;;;;;;;3.67;1.20;;;15.10;56.70;;;;;;4852631;29;20061;-79
2023/03/26 09:35:37;;;;;;;10.15;2.00;;;15.10;57.10;;;;;;4846077;29;20476;-81
2023/03/26 09:38:21;;;;;;;4.97;1.55;;;15.10;57.30;;;;;;4832451;29;20057;-81
2023/03/26 09:40:55;;;;;;;6.63;2.08;;;15.10;57.60;;;;;;4848233;29;20077;-77
2023/03/26 09:43:28;;;;;;;5.78;1.90;;;15.10;57.80;;;;;;4854065;29;20050;-80
2023/03/26 09:46:02;;;;;;;11.00;1.67;;;15.10;58.00;;;;;;4866018;29;20085;-79
2023/03/26 09:48:43;;;;;;;6.88;1.63;;;15.10;58.00;;;;;;4865651;29;20057;-77
2023/03/26 09:51:15;;;;;;;6.25;1.50;;;15.10;58.20;;;;;;4866489;29;20493;-80
2023/03/26 09:53:50;;;;;;;6.65;1.30;;;15.10;58.40;;;;;;4856549;29;20053;-78
2023/03/26 09:56:44;;;;;;;5.97;1.50;;;15.10;58.60;;;;;;4847388;29;20095;-80
2023/03/26 09:59:16;;;;;;;8.38;1.45;;;15.10;58.70;;;;;;4847047;29;20335;-81
2023/03/26 10:01:58;;;;;;;5.40;1.38;;;15.10;58.90;;;;;;4847817;29;20453;-77
2023/03/26 10:04:38;;;;;;;5.45;1.10;;;15.10;59.00;;;;;;4861034;29;20081;-78
2023/03/26 10:07:07;;;;;;;5.60;1.58;;;15.10;59.20;;;;;;4864866;29;20057;-78
2023/03/26 10:09:55;;;;;;;5.20;1.80;;;15.00;59.30;;;;;;4865912;29;20112;-79
2023/03/26 10:12:32;;;;;;;8.93;1.73;;;15.10;59.50;;;;;;4866143;29;20117;-79
2023/03/26 10:15:01;;;;;;;7.93;2.05;;;15.10;59.70;;;;;;4847689;29;20587;-78
2023/03/26 10:17:34;;;;;;;6.78;1.50;;;15.10;59.80;;;;;;4846792;29;20416;-80
2023/03/26 10:20:27;;;;;;;6.03;1.58;;;15.10;60.00;;;;;;4831279;29;20058;-81
2023/03/26 10:23:02;;;;;;;6.70;1.58;;;15.10;60.10;;;;;;4848740;29;20206;-77
2023/03/26 10:26:09;;;;;;;6.85;1.50;;;15.10;60.20;;;;;;4865935;29;20057;-78
2023/03/26 10:28:43;;;;;;;8.13;1.75;;;15.10;60.40;;;;;;4852365;29;20484;-79
2023/03/26 10:31:27;;;;;;;5.53;1.55;;;15.10;60.50;;;;;;4864729;29;20081;-75
2023/03/26 10:33:58;;;;;;;;;;;15.10;60.70;;;;;;4856928;29;20089;-79
2023/03/26 10:36:33;;;;;;;9.25;2.83;;;15.00;61.00;;;;;;4846095;29;20359;-79
2023/03/26 10:39:43;;;;;;;17.20;2.33;;;15.10;60.90;;;;;;4843762;29;20120;-78
2023/03/26 10:42:25;;;;;;;14.52;2.42;;;15.00;61.10;;;;;;4846682;29;20399;-79
2023/03/26 10:44:59;;;;;;;16.20;2.67;;;15.00;61.30;;;;;;4841096;29;20361;-78
2023/03/26 10:47:57;;;;;;;19.02;2.65;;;15.00;61.50;;;;;;4828856;29;20050;-79
2023/03/26 10:50:46;;;;;;;17.50;2.85;;;15.10;62.10;;;;;;4836846;29;20053;-79
2023/03/26 10:53:37;;;;;;;21.02;3.10;;;15.20;62.30;;;;;;4837474;29;20053;-81
2023/03/26 10:56:37;;;;;;;18.48;2.67;;;15.20;62.50;;;;;;4845949;29;20058;-77
2023/03/26 10:59:11;;;;;;;14.25;2.72;;;15.30;63.10;;;;;;4843167;29;20104;-78
2023/03/26 11:01:48;;;;;;;13.68;2.50;;;15.40;63.20;;;;;;4846945;29;20097;-82
2023/03/26 11:04:30;;;;;;;18.60;3.35;;;15.40;63.30;;;;;;4856780;29;20076;-79
2023/03/26 11:07:05;;;;;;;14.90;2.42;;;15.40;63.60;;;;;;4859387;29;20473;-79
2023/03/26 11:09:57;;;;;;;23.88;2.70;;;15.40;63.60;;;;;;4837574;29;20101;-78
2023/03/26 11:12:49;;;;;;;15.23;2.28;;;15.40;63.70;;;;;;4843317;29;20461;-79
2023/03/26 11:15:21;;;;;;;19.20;3.10;;;15.40;63.80;;;;;;4829979;29;20045;-80
2023/03/26 11:18:04;;;;;;;22.38;3.30;;;15.40;63.90;;;;;;4845060;29;20077;-79
2023/03/26 11:20:48;;;;;;;14.85;2.75;;;15.50;64.20;;;;;;4844979;29;20065;-80
2023/03/26 11:23:18;;;;;;;28.08;3.05;;;15.40;63.30;;;;;;4839193;29;20485;-82
2023/03/26 11:26:09;;;;;;;41.15;3.70;;;15.40;64.50;;;;;;4838917;29;20058;-79
2023/03/26 11:29:04;;;;;;;22.38;2.95;;;15.40;65.20;;;;;;4846032;29;20091;-80
2023/03/26 11:32:21;;;;;;;20.38;2.78;;;15.30;65.40;;;;;;4825138;29;20054;-80
2023/03/26 11:35:21;;;;;;;29.92;3.65;;;15.40;65.70;;;;;;4838021;29;20061;-80
2023/03/26 11:37:54;;;;;;;17.95;2.35;;;15.30;65.60;;;;;;4842255;29;20081;-82
2023/03/26 11:40:34;;;;;;;16.48;2.53;;;15.40;65.30;;;;;;4845959;29;20058;-80
2023/03/26 11:43:05;;;;;;;16.13;2.45;;;15.40;65.20;;;;;;4829495;29;20085;-80
2023/03/26 11:45:36;;;;;;;21.55;3.00;;;15.40;65.00;;;;;;4863094;29;20053;-81
2023/03/26 11:48:20;;;;;;;13.35;2.50;;;15.40;65.00;;;;;;4863147;29;20081;-79
2023/03/26 11:50:50;;;;;;;15.55;2.65;;;15.40;65.00;;;;;;4848019;29;20057;-81
2023/03/26 11:53:19;;;;;;;14.18;2.33;;;15.40;64.90;;;;;;4861191;29;20063;-82
2023/03/26 11:55:58;;;;;;;15.02;2.08;;;15.30;64.80;;;;;;4845075;29;20116;-82
2023/03/26 11:58:39;;;;;;;23.50;2.75;;;15.30;64.70;;;;;;4845426;29;20089;-82
2023/03/26 12:01:14;;;;;;;13.48;2.47;;;15.30;64.70;;;;;;4829830;29;20065;-82
2023/03/26 12:03:40;;;;;;;12.40;2.63;;;15.30;64.70;;;;;;4833751;29;20381;-80
2023/03/26 12:06:24;;;;;;;7.57;1.90;;;15.30;64.70;;;;;;4863248;29;20049;-82
2023/03/26 12:08:50;;;;;;;9.75;1.38;;;15.30;64.60;;;;;;4863620;29;20049;-80
2023/03/26 12:11:22;;;;;;;10.93;2.20;;;15.30;64.70;;;;;;4862740;29;20072;-82
2023/03/26 12:13:52;;;;;;;12.90;2.15;;;15.30;64.70;;;;;;4845166;29;20125;-80
2023/03/26 12:16:20;;;;;;;9.18;2.40;;;15.30;64.60;;;;;;4828439;29;20069;-81
2023/03/26 12:19:16;;;;;;;14.38;2.08;;;15.30;64.60;;;;;;4828747;29;20117;-82
2023/03/26 12:21:50;;;;;;;12.77;2.05;;;15.20;64.40;;;;;;4828616;29;20049;-82
2023/03/26 12:24:35;;;;;;;13.57;2.20;;;15.20;64.40;;;;;;4830934;29;20089;-80
2023/03/26 12:27:23;;;;;;;13.32;2.05;;;15.20;64.20;;;;;;4844601;29;20042;-84
2023/03/26 12:29:51;;;;;;;10.55;2.53;;;15.20;64.20;;;;;;4827086;29;20081;-81
2023/03/26 12:32:17;;;;;;;11.50;1.55;;;15.20;64.30;;;;;;4844466;29;20053;-76
2023/03/26 12:34:46;;;;;;;12.65;2.00;;;15.20;64.20;;;;;;4841632;29;20072;-82
2023/03/26 12:37:37;;;;;;;9.50;1.88;;;15.20;64.70;;;;;;4843431;29;20058;-84
2023/03/26 12:40:35;;;;;;;15.45;1.95;;;15.20;65.70;;;;;;4845016;29;20454;-83
2023/03/26 12:43:06;;;;;;;16.52;3.10;;;15.20;66.20;;;;;;4843156;29;20064;-82
2023/03/26 12:45:42;;;;;;;19.38;2.22;;;15.30;66.30;;;;;;4845292;29;20045;-80
2023/03/26 12:48:14;;;;;;;10.10;1.88;;;15.50;66.90;;;;;;4863140;29;20046;-78
2023/03/26 12:51:17;;;;;;;17.83;2.15;;;15.60;67.10;;;;;;4862840;29;20045;-80
2023/03/26 12:54:22;;;;;;;17.02;2.90;;;15.70;67.60;;;;;;4861357;29;20473;-78
2023/03/26 12:57:21;;;;;;;25.35;2.88;;;15.80;67.90;;;;;;4862811;29;20469;-79
2023/03/26 12:59:56;;;;;;;25.60;2.67;;;15.90;68.10;;;;;;4859871;29;20103;-80
2023/03/26 13:02:50;;;;;;;15.40;2.97;;;15.90;68.40;;;;;;4863153;29;20097;-77
2023/03/26 13:05:35;;;;;;;23.80;2.60;;;16.00;69.00;;;;;;4849946;29;20379;-79
2023/03/26 13:08:29;;;;;;;34.35;4.13;;;16.00;69.10;;;;;;4843993;29;20319;-78
2023/03/26 13:11:29;;;;;;;29.75;3.95;;;16.00;69.60;;;;;;4843609;29;20105;-80
2023/03/26 13:14:22;;;;;;;30.63;4.53;;;16.00;69.50;;;;;;4833248;29;20054;-78
2023/03/26 13:16:57;;;;;;;41.90;4.65;;;16.00;69.30;;;;;;4855123;29;20061;-81
2023/03/26 13:19:30;;;;;;;38.33;5.10;;;16.00;68.70;;;;;;4862411;29;20067;-78
2023/03/26 13:22:08;;;;;;;40.50;5.38;;;15.90;68.80;;;;;;4848015;29;20066;-81
2023/03/26 13:25:32;;;;;;;37.95;5.00;;;15.90;68.80;;;;;;4844396;29;20050;-81
2023/03/26 13:28:13;;;;;;;41.00;4.25;;;15.90;69.00;;;;;;4789126;29;20050;-79
2023/03/26 13:31:00;;;;;;;36.35;5.53;;;15.90;69.20;;;;;;4785500;29;20469;-80
2023/03/26 13:34:13;;;;;;;40.70;4.20;;;15.90;69.40;;;;;;4809311;29;20065;-79
2023/03/26 13:37:11;;;;;;;33.25;4.57;;;15.90;69.40;;;;;;4842458;29;20358;-84
2023/03/26 13:40:15;;;;;;;27.15;2.90;;;15.90;69.70;;;;;;4843069;29;20062;-81
2023/03/26 13:42:59;;;;;;;35.50;3.92;;;15.90;69.70;;;;;;4828203;29;20050;-74
2023/03/26 13:45:31;;;;;;;15.43;2.75;;;15.90;69.50;;;;;;4843260;29;20117;-82
2023/03/26 13:47:59;;;;;;;22.42;2.35;;;15.90;68.80;;;;;;4842895;29;20365;-82
2023/03/26 13:50:32;;;;;;;18.70;2.80;;;15.90;68.30;;;;;;4845950;29;20057;-82
2023/03/26 13:53:11;;;;;;;19.88;2.53;;;15.90;67.90;;;;;;4857519;29;20145;-79
2023/03/26 13:55:46;;;;;;;22.65;3.05;;;15.90;68.20;;;;;;4862589;29;20057;-78
2023/03/26 13:58:35;;;;;;;16.73;2.38;;;15.90;67.50;;;;;;4860900;29;20049;-79
2023/03/26 14:01:15;;;;;;;14.60;1.38;;;15.90;67.20;;;;;;4862622;29;20077;-79
2023/03/26 14:04:00;;;;;;;10.52;1.95;;;15.80;66.80;;;;;;4862666;29;20382;-79
2023/03/26 14:06:32;;;;;;;10.70;1.30;;;15.80;66.70;;;;;;4862273;29;20057;-79
2023/03/26 14:09:13;;;;;;;7.32;1.45;;;15.80;66.70;;;;;;4854503;29;20064;-81
2023/03/26 14:11:39;;;;;;;10.63;1.40;;;15.80;66.60;;;;;;4843388;29;20045;-79
2023/03/26 14:14:18;;;;;;;7.38;1.25;;;15.70;66.60;;;;;;4842715;29;20381;-80
2023/03/26 14:16:50;;;;;;;10.18;1.10;;;15.80;66.40;;;;;;4843770;29;20050;-78
2023/03/26 14:19:53;;;;;;;6.00;1.33;;;15.70;66.40;;;;;;4851985;29;20064;-78
2023/03/26 14:22:53;;;;;;;15.38;1.83;;;15.70;66.30;;;;;;4865374;29;20061;-78
2023/03/26 14:25:37;;;;;;;7.50;0.88;;;15.70;66.30;;;;;;4865511;29;20529;-79
2023/03/26 14:28:20;;;;;;;8.23;1.08;;;15.70;66.30;;;;;;4865735;29;20061;-78
2023/03/26 14:30:54;;;;;;;7.80;1.13;;;15.70;66.20;;;;;;4847496;29;20353;-80
2023/03/26 14:34:01;;;;;;;3.15;1.30;;;15.60;66.20;;;;;;4847388;29;20054;-77
2023/03/26 14:36:45;;;;;;;5.43;1.05;;;15.60;66.00;;;;;;4846958;29;20050;-79
2023/03/26 14:39:16;;;;;;;3.75;0.68;;;15.60;66.10;;;;;;4853566;29;20050;-78
2023/03/26 14:42:09;;;;;;;2.45;0.50;;;15.60;66.10;;;;;;4844933;29;20050;-79
2023/03/26 14:45:04;;;;;;;6.45;0.98;;;15.60;66.10;;;;;;4828610;29;20110;-78
2023/03/26 14:47:36;;;;;;;4.45;0.80;;;15.60;66.10;;;;;;4827456;29;20454;-78
2023/03/26 14:50:02;;;;;;;4.03;0.85;;;15.50;66.10;;;;;;4856091;29;20053;-78
2023/03/26 14:52:37;;;;;;;6.43;1.02;;;15.50;66.10;;;;;;4864651;29;20466;-78
2023/03/26 14:55:12;;;;;;;4.85;0.47;;;15.50;66.10;;;;;;4865305;29;20081;-78
2023/03/26 14:58:00;;;;;;;5.70;0.55;;;15.50;66.00;;;;;;4865139;29;20049;-78
2023/03/26 15:00:47;;;;;;;5.78;0.70;;;15.50;65.90;;;;;;4847629;29;20132;-77
2023/03/26 15:03:47;;;;;;;7.00;0.65;;;15.50;65.90;;;;;;4850522;29;20062;-79
2023/03/26 15:06:25;;;;;;;5.60;0.70;;;15.50;66.00;;;;;;4828156;29;20054;-78
2023/03/26 15:09:12;;;;;;;2.85;0.57;;;15.50;66.00;;;;;;4836307;29;20052;-80
2023/03/26 15:11:52;;;;;;;4.80;0.82;;;15.50;66.00;;;;;;4864459;29;20102;-81
2023/03/26 15:14:55;;;;;;;5.93;0.77;;;15.50;65.90;;;;;;4828433;29;20440;-79
2023/03/26 15:17:51;;;;;;;8.73;0.95;;;15.40;65.90;;;;;;4842907;29;20050;-80
2023/03/26 15:20:35;;;;;;;5.70;0.57;;;15.50;66.10;;;;;;4858271;29;20061;-78
2023/03/26 15:23:39;;;;;;;8.48;1.00;;;15.50;66.30;;;;;;4863864;29;20353;-80
2023/03/26 15:26:27;;;;;;;3.90;0.40;;;15.50;66.40;;;;;;4864599;29;20090;-78
2023/03/26 15:29:08;;;;;;;5.55;0.68;;;15.40;66.60;;;;;;4843739;29;20050;-79
2023/03/26 15:31:56;;;;;;;6.57;0.63;;;15.40;67.30;;;;;;4846208;29;20096;-79
2023/03/26 15:34:37;;;;;;;6.55;1.08;;;15.40;66.80;;;;;;4846016;29;20053;-77
2023/03/26 15:37:04;;;;;;;6.95;1.38;;;15.40;67.00;;;;;;4845024;29;20058;-81
2023/03/26 15:40:10;;;;;;;15.77;2.42;;;15.50;67.10;;;;;;4853780;29;20520;-81
2023/03/26 15:43:13;;;;;;;16.17;2.33;;;15.40;67.00;;;;;;4862203;29;20137;-84
2023/03/26 15:46:07;;;;;;;12.93;2.10;;;15.40;66.90;;;;;;4864473;29;20445;-75
2023/03/26 15:48:44;;;;;;;14.73;1.90;;;15.40;66.80;;;;;;4862274;29;20064;-75
2023/03/26 15:51:34;;;;;;;15.75;2.08;;;15.40;66.80;;;;;;4845980;29;20054;-75
2023/03/26 15:54:26;;;;;;;20.13;2.05;;;15.40;66.30;;;;;;4838782;29;20046;-79
2023/03/26 15:57:27;;;;;;;17.02;3.28;;;15.40;65.40;;;;;;4844598;29;20046;-81
2023/03/26 16:00:29;;;;;;;15.43;2.85;;;15.40;65.10;;;;;;4803322;29;20137;-83
2023/03/26 16:03:11;;;;;;;28.17;3.53;;;15.50;66.50;;;;;;4844385;29;20042;-82
2023/03/26 16:06:06;;;;;;;21.83;2.90;;;15.40;67.20;;;;;;4829724;29;20053;-77
2023/03/26 16:08:35;;;;;;;18.80;3.20;;;15.50;68.10;;;;;;4845099;29;20054;-78
2023/03/26 16:11:06;;;;;;;21.13;2.17;;;15.50;68.50;;;;;;4831310;29;20046;-80
2023/03/26 16:13:38;;;;;;;27.10;3.05;;;15.60;69.90;;;;;;4845425;29;20515;-78
2023/03/26 16:16:13;;;;;;;29.52;3.30;;;15.60;69.80;;;;;;4829034;29;20089;-80
2023/03/26 16:19:07;;;;;;;21.27;3.28;;;15.60;71.40;;;;;;4846085;29;20470;-81
2023/03/26 16:21:43;;;;;;;24.63;3.00;;;15.70;72.00;;;;;;4846668;29;20057;-80
2023/03/26 16:24:20;;;;;;;26.33;3.10;;;15.70;72.60;;;;;;4863924;29;20057;-82
2023/03/26 16:27:12;;;;;;;20.58;2.63;;;15.70;72.90;;;;;;4863600;29;20060;-80
2023/03/26 16:29:59;;;;;;;20.65;3.58;;;15.70;73.30;;;;;;4862904;29;20049;-79
2023/03/26 16:32:33;;;;;;;18.98;2.67;;;15.70;72.80;;;;;;4826900;29;20046;-81
2023/03/26 16:35:14;;;;;;;21.45;2.78;;;15.70;72.70;;;;;;4826303;29;20490;-79
2023/03/26 16:37:51;;;;;;;17.50;2.13;;;15.70;72.90;;;;;;4826891;29;20086;-79
2023/03/26 16:40:19;;;;;;;16.25;2.17;;;15.70;72.50;;;;;;4832893;29;20129;-78
2023/03/26 16:43:04;;;;;;;16.05;2.40;;;15.70;72.30;;;;;;4862480;29;20128;-81
2023/03/26 16:45:55;;;;;;;22.08;3.22;;;15.80;72.40;;;;;;4862548;29;20113;-81
2023/03/26 16:48:48;;;;;;;28.75;2.50;;;15.80;71.80;;;;;;4857159;29;20060;-81
2023/03/26 16:51:19;;;;;;;23.33;3.30;;;15.80;71.70;;;;;;4825938;29;20076;-79
2023/03/26 16:53:51;;;;;;;29.42;3.80;;;15.70;71.50;;;;;;4855401;29;20052;-79
2023/03/26 16:56:21;;;;;;;23.00;3.08;;;15.80;71.50;;;;;;4844164;29;20042;-79
2023/03/26 16:59:00;;;;;;;17.27;2.70;;;15.70;71.50;;;;;;4825865;29;20066;-79
2023/03/26 17:02:08;;;;;;;20.58;3.13;;;15.70;71.60;;;;;;4843884;29;20061;-80
2023/03/26 17:04:35;;;;;;;15.27;2.30;;;15.70;71.50;;;;;;4844353;29;20056;-78
2023/03/26 17:07:35;;;;;;;15.93;2.95;;;15.70;71.40;;;;;;4842358;29;20116;-77
2023/03/26 17:10:30;;;;;;;20.17;3.00;;;15.70;71.40;;;;;;4838635;29;20045;-77
2023/03/26 17:13:30;;;;;;;23.08;2.47;;;15.70;71.40;;;;;;4834349;29;20046;-78
2023/03/26 17:16:21;;;;;;;22.65;3.15;;;15.70;71.20;;;;;;4825638;29;20060;-78
2023/03/26 17:19:05;;;;;;;27.98;4.78;;;15.70;71.20;;;;;;4825006;29;20416;-81
2023/03/26 17:21:45;;;;;;;23.30;3.13;;;15.70;71.40;;;;;;4843903;29;20053;-80
2023/03/26 17:24:35;;;;;;;22.45;3.17;;;15.70;71.30;;;;;;4861079;29;20053;-82
2023/03/26 17:27:10;;;;;;;31.33;4.30;;;15.70;71.10;;;;;;4861501;29;20524;-80
2023/03/26 17:30:14;;;;;;;16.35;2.60;;;15.60;71.70;;;;;;4862348;29;20049;-81
2023/03/26 17:33:18;;;;;;;30.50;3.60;;;15.60;70.90;;;;;;4845237;29;20061;-77
2023/03/26 17:35:48;;;;;;;27.10;3.43;;;15.60;71.50;;;;;;4841408;29;20148;-79
2023/03/26 17:38:17;;;;;;;20.25;3.03;;;15.60;70.70;;;;;;4844369;29;20065;-77
2023/03/26 17:40:58;;;;;;;18.33;2.83;;;15.60;70.50;;;;;;4843672;29;20085;-77
2023/03/26 17:43:45;;;;;;;15.88;2.25;;;15.60;71.00;;;;;;4857948;29;20112;-78
2023/03/26 17:46:31;;;;;;;20.80;2.83;;;15.60;70.10;;;;;;4863067;29;20053;-78
2023/03/26 17:49:11;;;;;;;14.70;2.72;;;15.60;70.00;;;;;;4862922;29;20064;-80
2023/03/26 17:52:15;;;;;;;19.70;2.53;;;15.60;69.70;;;;;;4862072;29;20050;-78
2023/03/26 17:54:46;;;;;;;13.15;1.92;;;15.60;69.50;;;;;;4844602;29;20072;-77
2023/03/26 17:57:18;;;;;;;14.90;2.45;;;15.60;69.30;;;;;;4848177;29;20324;-77
2023/03/26 17:59:45;;;;;;;13.85;2.03;;;15.60;69.10;;;;;;4846957;29;20050;-79
2023/03/26 18:02:17;;;;;;;10.93;2.05;;;15.60;69.00;;;;;;4851903;29;20473;-80
2023/03/26 18:04:47;;;;;;;14.38;3.08;;;15.60;68.80;;;;;;4866210;29;20053;-77
2023/03/26 18:07:37;;;;;;;15.38;1.75;;;15.50;68.70;;;;;;4865436;29;20410;-79
2023/03/26 18:10:31;;;;;;;16.20;2.08;;;15.60;68.50;;;;;;4866321;29;20049;-80
2023/03/26 18:13:09;;;;;;;7.55;1.80;;;15.60;68.40;;;;;;4855429;29;20389;-79
2023/03/26 18:15:43;;;;;;;6.55;2.05;;;15.50;68.20;;;;;;4847588;29;20050;-78
2023/03/26 18:18:18;;;;;;;8.80;2.10;;;15.50;68.00;;;;;;4848582;29;20065;-78
2023/03/26 18:20:49;;;;;;;12.15;2.10;;;15.50;67.90;;;;;;4856706;29;20592;-80
2023/03/26 18:23:40;;;;;;;16.98;2.00;;;15.50;67.70;;;;;;4847606;29;20089;-78
2023/03/26 18:26:16;;;;;;;16.20;2.03;;;15.50;67.70;;;;;;4846832;29;20375;-78
2023/03/26 18:29:04;;;;;;;7.75;1.98;;;15.50;67.60;;;;;;4850838;29;20113;-80
2023/03/26 18:31:30;;;;;;;12.52;2.17;;;15.50;67.70;;;;;;4863920;29;20461;-76
2023/03/26 18:34:05;;;;;;;11.52;2.47;;;15.50;67.80;;;;;;4864551;29;20057;-81
2023/03/26 18:37:09;;;;;;;13.93;2.15;;;15.40;67.60;;;;;;4864435;29;20140;-85
2023/03/26 18:40:09;;;;;;;23.23;3.08;;;15.40;67.40;;;;;;4858334;29;20113;-81
